This is the latest recevied weather packets stored in our database for station/object WMKK. If no packets are shown the sender has not sent any weather packets the latest 10 day(s).
| Time | Temp. | Humidity | Pressure | Rain* | Wind** | Luminosity | Snow |
|---|---|---|---|---|---|---|---|
| 1778161207 | 28.89° C | 79% | 1007 hPa | - | - | - | - |
| 1778159425 | 28.89° C | 83% | 1007 hPa | - | - | - | - |
| 1778157607 | 30° C | 74% | 1006 hPa | - | - | - | - |
| 1778155833 | 30° C | 74% | 1005 hPa | - | - | - | - |
| 1778154007 | 30° C | 74% | 1005 hPa | - | - | - | - |
| 1778152231 | 30° C | 74% | 1004 hPa | - | - | - | - |
| 1778150410 | 30.56° C | 70% | 1004 hPa | - | - | - | - |
| 1778148625 | 31.67° C | 66% | 1004 hPa | - | - | - | - |
| 1778146810 | 31.67° C | 66% | 1004 hPa | - | - | - | - |
| 1778145024 | 32.78° C | 66% | 1004 hPa | - | - | - | - |
| 1778143206 | 32.78° C | 62% | 1003 hPa | - | - | - | - |
| 1778141433 | 32.78° C | 62% | 1004 hPa | - | - | - | - |
| 1778139606 | 32.78° C | 66% | 1005 hPa | - | - | - | - |
| 1778137824 | 32.78° C | 66% | 1005 hPa | - | - | - | - |
| 1778136009 | 32.78° C | 62% | 1006 hPa | - | - | - | - |
| 1778134224 | 32.78° C | 62% | 1006 hPa | - | - | - | - |
| 1778132407 | 32.78° C | 66% | 1006 hPa | - | - | - | - |
| 1778130624 | 32.78° C | 62% | 1007 hPa | - | - | - | - |
| 1778128806 | 32.78° C | 66% | 1007 hPa | - | - | - | - |
| 1778127032 | 32.78° C | 59% | 1008 hPa | - | - | - | - |
| 1778125206 | 31.67° C | 66% | 1008 hPa | - | - | - | - |
| 1778123424 | 31.67° C | 66% | 1008 hPa | - | - | - | - |
| 1778121609 | 30.56° C | 70% | 1008 hPa | - | - | - | - |
| 1778119824 | 30.56° C | 70% | 1008 hPa | - | - | - | - |
| 1778118006 | 30° C | 79% | 1008 hPa | - | - | - | - |
* Rain since midnight (hover to see other rain measurements)
** Current wind speed in m/s (hover to see current wind gust speed)